createdAt,value
2019-03-16T00:00:36.493Z,7.06
2019-03-16T00:01:36.235Z,7.1
2019-03-16T00:02:36.469Z,7.05
2019-03-16T00:03:36.210Z,7.02
2019-03-16T00:04:36.439Z,7.05
2019-03-16T00:05:36.437Z,7.17
2019-03-16T00:06:36.416Z,7.13
2019-03-16T00:07:38.090Z,7.1
2019-03-16T00:08:36.147Z,7.15
2019-03-16T00:09:36.374Z,7.25
2019-03-16T00:10:36.362Z,7.12
2019-03-16T00:11:36.374Z,7.16
2019-03-16T00:12:36.343Z,7.15
2019-03-16T00:13:36.329Z,7.15
2019-03-16T00:14:36.313Z,7.2
2019-03-16T00:15:36.299Z,7.17
2019-03-16T00:16:36.366Z,7.13
2019-03-16T00:17:36.268Z,7.07
2019-03-16T00:18:36.258Z,7.1
2019-03-16T00:19:36.246Z,7.05
2019-03-16T00:20:36.236Z,7.05
2019-03-16T00:21:36.220Z,7.07
2019-03-16T00:22:36.212Z,7.1
2019-03-16T00:23:36.193Z,7.09
2019-03-16T00:24:36.179Z,6.99
2019-03-16T00:25:36.176Z,6.95
2019-03-16T00:26:36.155Z,7.05
2019-03-16T00:27:36.140Z,6.97
2019-03-16T00:28:36.128Z,7.03
2019-03-16T00:29:36.116Z,6.84
2019-03-16T00:30:36.100Z,6.88
2019-03-16T00:31:36.087Z,6.88
2019-03-16T00:32:36.080Z,6.89
2019-03-16T00:33:36.065Z,6.85
2019-03-16T00:34:36.052Z,6.87
2019-03-16T00:35:36.046Z,6.81
2019-03-16T00:36:36.033Z,6.84
2019-03-16T00:37:36.009Z,6.67
2019-03-16T00:38:36.074Z,6.69
2019-03-16T00:39:35.998Z,6.79
2019-03-16T00:40:35.970Z,6.74
2019-03-16T00:41:35.963Z,6.71
2019-03-16T00:42:35.950Z,6.74
2019-03-16T00:43:35.933Z,6.8
2019-03-16T00:44:35.927Z,6.67
2019-03-16T00:45:35.926Z,6.7
2019-03-16T00:46:35.892Z,6.67
2019-03-16T00:47:35.888Z,6.7
2019-03-16T00:48:35.865Z,6.66
2019-03-16T00:49:35.853Z,6.69
2019-03-16T00:50:35.839Z,6.69
2019-03-16T00:51:35.830Z,6.67
2019-03-16T00:52:35.812Z,6.64
2019-03-16T00:53:35.801Z,6.61
2019-03-16T00:54:35.787Z,6.55
2019-03-16T00:55:35.784Z,6.55
2019-03-16T00:56:35.764Z,6.58
2019-03-16T00:57:35.750Z,6.56
2019-03-16T00:58:35.736Z,6.52
2019-03-16T00:59:35.723Z,6.64
2019-03-16T01:00:35.715Z,6.54
2019-03-16T01:01:35.696Z,6.46
2019-03-16T01:02:37.661Z,6.54
2019-03-16T01:03:35.685Z,6.43
2019-03-16T01:04:35.662Z,6.56
2019-03-16T01:05:35.647Z,6.49
2019-03-16T01:06:35.630Z,6.54
2019-03-16T01:07:35.617Z,6.56
2019-03-16T01:08:35.604Z,6.51
2019-03-16T01:09:35.593Z,6.54
2019-03-16T01:10:35.579Z,6.54
2019-03-16T01:11:35.565Z,6.49
2019-03-16T01:12:35.549Z,6.56
2019-03-16T01:13:35.537Z,6.41
2019-03-16T01:14:35.523Z,6.48
2019-03-16T01:15:35.509Z,6.48
2019-03-16T01:16:35.499Z,6.49
2019-03-16T01:17:35.484Z,6.51
2019-03-16T01:18:35.468Z,6.51
2019-03-16T01:19:35.455Z,6.49
2019-03-16T01:20:35.449Z,6.52
2019-03-16T01:21:35.428Z,6.51
2019-03-16T01:22:35.420Z,6.55
2019-03-16T01:23:35.403Z,6.49
2019-03-16T01:24:35.441Z,6.52
2019-03-16T01:25:35.376Z,6.46
2019-03-16T01:26:35.371Z,6.46
2019-03-16T01:27:35.356Z,6.51
2019-03-16T01:28:35.340Z,6.46
2019-03-16T01:29:35.354Z,6.51
2019-03-16T01:30:35.309Z,6.55
2019-03-16T01:31:35.298Z,6.54
2019-03-16T01:32:45.325Z,6.51
2019-03-16T01:33:35.030Z,6.52
2019-03-16T01:34:35.258Z,6.52
2019-03-16T01:35:35.254Z,6.51
2019-03-16T01:36:35.236Z,6.49
2019-03-16T01:37:35.222Z,6.54
2019-03-16T01:38:35.210Z,6.59
2019-03-16T01:39:35.201Z,6.54
2019-03-16T01:40:35.182Z,6.49
2019-03-16T01:41:35.163Z,6.49
2019-03-16T01:42:35.151Z,6.52
2019-03-16T01:43:35.137Z,6.49
2019-03-16T01:44:35.129Z,6.51
2019-03-16T01:45:35.110Z,6.51
2019-03-16T01:46:35.183Z,6.48
2019-03-16T01:47:35.082Z,6.48
2019-03-16T01:48:35.068Z,6.43
2019-03-16T01:49:35.057Z,6.46
2019-03-16T01:50:35.114Z,6.46
2019-03-16T01:51:35.027Z,6.52
2019-03-16T01:52:35.020Z,6.4
2019-03-16T01:53:34.759Z,6.38
2019-03-16T01:54:34.991Z,6.38
2019-03-16T01:55:34.977Z,6.38
2019-03-16T01:56:34.720Z,6.41
2019-03-16T01:57:34.962Z,6.41
2019-03-16T01:58:34.955Z,6.44
2019-03-16T01:59:34.925Z,6.46
2019-03-16T02:00:34.913Z,6.46
2019-03-16T02:01:34.899Z,6.49
2019-03-16T02:02:34.882Z,6.51
2019-03-16T02:03:34.870Z,6.44
2019-03-16T02:04:34.856Z,6.52
2019-03-16T02:05:34.842Z,6.52
2019-03-16T02:06:34.833Z,6.56
2019-03-16T02:07:34.818Z,6.56
2019-03-16T02:08:34.805Z,6.58
2019-03-16T02:09:34.791Z,6.67
2019-03-16T02:10:34.781Z,6.62
2019-03-16T02:11:34.764Z,6.7
2019-03-16T02:12:34.770Z,6.71
2019-03-16T02:13:34.750Z,6.69
2019-03-16T02:14:34.782Z,6.73
2019-03-16T02:15:34.712Z,6.73
2019-03-16T02:16:34.704Z,6.71
2019-03-16T02:17:34.682Z,6.7
2019-03-16T02:18:34.667Z,6.59
2019-03-16T02:19:38.251Z,6.7
2019-03-16T02:20:34.641Z,6.71
2019-03-16T02:21:34.769Z,6.7
2019-03-16T02:22:34.621Z,6.71
2019-03-16T02:23:34.607Z,6.7
2019-03-16T02:24:34.592Z,6.73
2019-03-16T02:25:34.577Z,6.7
2019-03-16T02:26:34.574Z,6.73
2019-03-16T02:27:34.557Z,6.74
2019-03-16T02:28:34.539Z,6.7
2019-03-16T02:29:34.523Z,6.74
2019-03-16T02:30:34.517Z,6.71
2019-03-16T02:31:34.266Z,6.76
2019-03-16T02:32:34.497Z,6.7
2019-03-16T02:33:34.246Z,6.71
2019-03-16T02:34:34.470Z,6.76
2019-03-16T02:35:34.456Z,6.79
2019-03-16T02:36:34.451Z,6.73
2019-03-16T02:37:34.420Z,6.76
2019-03-16T02:38:34.447Z,6.73
2019-03-16T02:39:34.396Z,6.74
2019-03-16T02:40:34.388Z,6.71
2019-03-16T02:41:34.384Z,6.69
2019-03-16T02:42:34.482Z,6.64
2019-03-16T02:43:34.342Z,6.62
2019-03-16T02:44:34.336Z,6.66
2019-03-16T02:45:34.329Z,6.61
2019-03-16T02:46:34.302Z,6.58
2019-03-16T02:47:34.329Z,6.61
2019-03-16T02:48:34.285Z,6.58
2019-03-16T02:49:34.265Z,6.51
2019-03-16T02:50:34.252Z,6.56
2019-03-16T02:51:34.238Z,6.48
2019-03-16T02:52:34.227Z,6.49
2019-03-16T02:53:34.254Z,6.46
2019-03-16T02:54:34.227Z,6.44
2019-03-16T02:55:34.202Z,6.52
2019-03-16T02:56:34.187Z,6.51
2019-03-16T02:57:34.173Z,6.49
2019-03-16T02:58:34.247Z,6.44
2019-03-16T02:59:34.134Z,6.55
2019-03-16T03:00:34.118Z,6.49
2019-03-16T03:01:33.860Z,6.4
2019-03-16T03:02:34.108Z,6.48
2019-03-16T03:03:35.075Z,6.48
2019-03-16T03:04:34.060Z,6.46
2019-03-16T03:05:34.066Z,6.34
2019-03-16T03:06:34.090Z,6.38
2019-03-16T03:07:34.051Z,6.38
2019-03-16T03:08:34.017Z,6.34
2019-03-16T03:09:34.020Z,6.3
2019-03-16T03:10:34.002Z,6.38
2019-03-16T03:11:33.986Z,6.34
2019-03-16T03:12:33.959Z,6.33
2019-03-16T03:13:33.964Z,6.36
2019-03-16T03:14:33.938Z,6.44
2019-03-16T03:15:33.928Z,6.54
2019-03-16T03:16:33.903Z,6.51
2019-03-16T03:17:33.898Z,6.48
2019-03-16T03:18:33.878Z,6.51
2019-03-16T03:19:33.875Z,6.55
2019-03-16T03:20:33.860Z,6.56
2019-03-16T03:21:33.840Z,6.58
2019-03-16T03:22:33.823Z,6.58
2019-03-16T03:23:33.814Z,6.49
2019-03-16T03:24:33.801Z,6.54
2019-03-16T03:25:33.787Z,6.48
2019-03-16T03:26:33.777Z,6.54
2019-03-16T03:27:33.762Z,6.62
2019-03-16T03:28:33.830Z,6.56
2019-03-16T03:29:33.728Z,6.54
2019-03-16T03:30:33.732Z,6.46
2019-03-16T03:31:33.541Z,6.43
2019-03-16T03:32:33.735Z,6.36
2019-03-16T03:34:05.034Z,6.36
2019-03-16T03:34:33.667Z,6.37
2019-03-16T03:35:34.501Z,6.36
2019-03-16T03:36:33.636Z,6.38
2019-03-16T03:37:33.724Z,6.3
2019-03-16T03:38:33.620Z,6.28
2019-03-16T03:39:33.645Z,6.31
2019-03-16T03:40:33.589Z,6.31
2019-03-16T03:41:33.574Z,6.31
2019-03-16T03:42:33.559Z,6.22
2019-03-16T03:43:33.591Z,6.28
2019-03-16T03:44:33.557Z,6.27
2019-03-16T03:45:33.517Z,6.15
2019-03-16T03:46:37.295Z,6.22
2019-03-16T03:47:33.497Z,6.22
2019-03-16T03:48:33.481Z,6.3
2019-03-16T03:49:33.528Z,6.28
2019-03-16T03:50:33.465Z,6.31
2019-03-16T03:51:33.441Z,6.28
2019-03-16T03:52:33.582Z,6.34
2019-03-16T03:53:33.424Z,6.4
2019-03-16T03:54:33.152Z,6.34
2019-03-16T03:55:33.384Z,6.38
2019-03-16T03:56:33.369Z,6.36
2019-03-16T03:57:33.363Z,6.36
2019-03-16T03:58:33.100Z,6.37
2019-03-16T03:59:33.369Z,6.36
2019-03-16T04:00:33.322Z,6.38
2019-03-16T04:01:33.315Z,6.28
2019-03-16T04:02:33.301Z,6.22
2019-03-16T04:03:33.300Z,6.3
2019-03-16T04:04:33.280Z,6.22
2019-03-16T04:05:33.251Z,6.22
2019-03-16T04:06:33.244Z,6.21
2019-03-16T04:07:33.222Z,6.17
2019-03-16T04:08:33.211Z,6.17
2019-03-16T04:09:33.196Z,6.17
2019-03-16T04:10:33.193Z,6.21
2019-03-16T04:11:33.163Z,6.28
2019-03-16T04:12:33.213Z,6.25
2019-03-16T04:13:33.173Z,6.27
2019-03-16T04:14:33.217Z,6.38
2019-03-16T04:15:33.155Z,6.43
2019-03-16T04:16:33.101Z,6.44
2019-03-16T04:17:33.100Z,6.49
2019-03-16T04:18:33.081Z,6.44
2019-03-16T04:19:33.089Z,6.51
2019-03-16T04:20:33.119Z,6.51
2019-03-16T04:21:33.080Z,6.55
2019-03-16T04:22:33.022Z,6.54
2019-03-16T04:23:33.007Z,6.55
2019-03-16T04:24:32.997Z,6.61
2019-03-16T04:25:32.982Z,6.62
2019-03-16T04:26:32.976Z,6.69
2019-03-16T04:27:32.958Z,6.64
2019-03-16T04:28:32.940Z,6.67
2019-03-16T04:29:32.927Z,6.7
2019-03-16T04:30:32.919Z,6.7
2019-03-16T04:31:32.901Z,6.64
2019-03-16T04:32:32.884Z,6.55
2019-03-16T04:33:32.869Z,6.58
2019-03-16T04:34:34.625Z,6.54
2019-03-16T04:35:32.859Z,6.55
2019-03-16T04:36:32.833Z,6.55
2019-03-16T04:37:32.828Z,6.51
2019-03-16T04:38:32.806Z,6.44
2019-03-16T04:39:32.848Z,6.43
2019-03-16T04:40:32.782Z,6.37
2019-03-16T04:41:32.763Z,6.33
2019-03-16T04:42:32.751Z,6.38
2019-03-16T04:43:32.735Z,6.3
2019-03-16T04:44:32.724Z,6.4
2019-03-16T04:45:32.708Z,6.3
2019-03-16T04:46:36.103Z,6.27
2019-03-16T04:47:32.680Z,6.3
2019-03-16T04:48:32.671Z,6.34
2019-03-16T04:49:32.659Z,6.25
2019-03-16T04:50:32.646Z,6.25
2019-03-16T04:51:32.384Z,6.31
2019-03-16T04:52:32.378Z,6.18
2019-03-16T04:53:32.610Z,6.27
2019-03-16T04:54:32.594Z,6.25
2019-03-16T04:55:32.577Z,6.19
2019-03-16T04:56:32.561Z,6.27
2019-03-16T04:57:32.553Z,6.31
2019-03-16T04:58:32.535Z,6.33
2019-03-16T04:59:32.525Z,6.31
2019-03-16T05:00:32.511Z,6.28
2019-03-16T05:01:32.498Z,6.33
2019-03-16T05:02:32.486Z,6.31
2019-03-16T05:03:32.471Z,6.37
2019-03-16T05:04:44.835Z,6.28
2019-03-16T05:05:32.440Z,6.34
2019-03-16T05:06:32.433Z,6.4
2019-03-16T05:07:32.417Z,6.33
2019-03-16T05:08:32.402Z,6.22
2019-03-16T05:09:32.392Z,6.3
2019-03-16T05:10:32.390Z,6.28
2019-03-16T05:11:32.361Z,6.28
2019-03-16T05:12:32.350Z,6.27
2019-03-16T05:13:32.330Z,6.36
2019-03-16T05:14:32.318Z,6.4
2019-03-16T05:15:32.303Z,6.38
2019-03-16T05:16:32.296Z,6.38
2019-03-16T05:17:32.034Z,6.34
2019-03-16T05:18:32.286Z,6.37
2019-03-16T05:19:32.252Z,6.33
2019-03-16T05:20:32.238Z,6.3
2019-03-16T05:21:32.224Z,6.33
2019-03-16T05:22:32.211Z,6.31
2019-03-16T05:23:32.227Z,6.36
2019-03-16T05:24:32.188Z,6.38
2019-03-16T05:25:32.175Z,6.36
2019-03-16T05:26:32.161Z,6.36
2019-03-16T05:27:32.147Z,6.48
2019-03-16T05:28:32.134Z,6.44
2019-03-16T05:29:32.130Z,6.46
2019-03-16T05:30:32.105Z,6.41
2019-03-16T05:31:32.089Z,6.48
2019-03-16T05:32:32.091Z,6.49
2019-03-16T05:33:31.927Z,6.56
2019-03-16T05:34:32.050Z,6.51
2019-03-16T05:35:32.045Z,6.54
2019-03-16T05:36:32.026Z,6.55
2019-03-16T05:37:32.015Z,6.61
2019-03-16T05:38:31.999Z,6.58
2019-03-16T05:39:31.755Z,6.71
2019-03-16T05:40:31.972Z,6.7
2019-03-16T05:41:31.981Z,6.67
2019-03-16T05:42:31.959Z,6.7
2019-03-16T05:43:31.932Z,6.7
2019-03-16T05:44:31.916Z,6.79
2019-03-16T05:45:32.020Z,6.87
2019-03-16T05:46:31.894Z,6.92
2019-03-16T05:47:31.638Z,6.85
2019-03-16T05:48:31.866Z,6.95
2019-03-16T05:49:31.855Z,6.99
2019-03-16T05:50:31.839Z,7.02
2019-03-16T05:51:31.913Z,7.15
2019-03-16T05:52:31.815Z,7.1
2019-03-16T05:53:31.801Z,7.13
2019-03-16T05:54:31.793Z,7.24
2019-03-16T05:55:31.782Z,7.31
2019-03-16T05:56:31.762Z,7.34
2019-03-16T05:57:31.750Z,7.4
2019-03-16T05:58:31.742Z,7.5
2019-03-16T05:59:31.725Z,7.49
2019-03-16T06:00:31.715Z,7.49
2019-03-16T06:01:31.701Z,7.67
2019-03-16T06:02:31.691Z,7.61
2019-03-16T06:03:31.684Z,7.55
2019-03-16T06:04:31.664Z,7.63
2019-03-16T06:05:31.408Z,7.69
2019-03-16T06:06:32.351Z,7.69
2019-03-16T06:07:31.397Z,7.69
2019-03-16T06:08:31.657Z,7.77
2019-03-16T06:09:31.610Z,7.82
2019-03-16T06:10:31.593Z,7.8
2019-03-16T06:11:31.583Z,7.89
2019-03-16T06:12:31.574Z,7.86
2019-03-16T06:13:31.635Z,8
2019-03-16T06:14:31.555Z,8.02
2019-03-16T06:15:31.538Z,8.01
2019-03-16T06:16:31.521Z,8.04
2019-03-16T06:17:31.265Z,8.15
2019-03-16T06:18:31.499Z,8.19
2019-03-16T06:19:31.490Z,8.33
2019-03-16T06:20:31.478Z,8.38
2019-03-16T06:21:31.465Z,8.33
2019-03-16T06:22:31.452Z,8.47
2019-03-16T06:23:31.441Z,8.48
2019-03-16T06:24:32.916Z,8.52
2019-03-16T06:25:31.435Z,8.59
2019-03-16T06:26:31.495Z,8.7
2019-03-16T06:27:31.146Z,8.77
2019-03-16T06:28:31.407Z,8.79
2019-03-16T06:29:31.395Z,8.96
2019-03-16T06:30:31.361Z,9.04
2019-03-16T06:31:31.354Z,9.15
2019-03-16T06:32:31.337Z,9.26
2019-03-16T06:33:31.325Z,9.31
2019-03-16T06:34:31.317Z,9.4
2019-03-16T06:35:34.250Z,9.54
2019-03-16T06:36:31.296Z,9.69
2019-03-16T06:37:31.039Z,9.74
2019-03-16T06:38:31.274Z,9.81
2019-03-16T06:39:31.264Z,9.83
2019-03-16T06:40:31.254Z,9.9
2019-03-16T06:41:31.242Z,9.97
2019-03-16T06:42:30.991Z,10.09
2019-03-16T06:43:31.320Z,10.23
2019-03-16T06:44:31.215Z,10.36
2019-03-16T06:45:31.208Z,10.47
2019-03-16T06:46:31.299Z,10.6
2019-03-16T06:47:31.192Z,10.6
2019-03-16T06:48:31.174Z,10.71
2019-03-16T06:49:31.170Z,10.91
2019-03-16T06:50:31.159Z,11.03
2019-03-16T06:51:31.152Z,11.15
2019-03-16T06:52:31.138Z,11.27
2019-03-16T06:53:31.147Z,11.29
2019-03-16T06:54:31.132Z,11.42
2019-03-16T06:55:31.115Z,11.49
2019-03-16T06:56:31.137Z,11.69
2019-03-16T06:57:30.853Z,11.73
2019-03-16T06:58:31.180Z,11.82
2019-03-16T06:59:30.845Z,11.73
2019-03-16T07:00:31.072Z,11.79
2019-03-16T07:01:31.065Z,11.82
2019-03-16T07:02:30.571Z,11.8
2019-03-16T07:03:31.049Z,11.88
2019-03-16T07:04:31.087Z,11.8
2019-03-16T07:05:42.951Z,11.86
2019-03-16T07:06:31.023Z,11.88
2019-03-16T07:07:30.772Z,11.78
2019-03-16T07:08:31.007Z,11.79
2019-03-16T07:09:31.000Z,11.8
2019-03-16T07:10:30.992Z,11.73
2019-03-16T07:11:30.986Z,11.76
2019-03-16T07:12:30.731Z,11.76
2019-03-16T07:13:30.966Z,11.79
2019-03-16T07:14:30.958Z,11.67
2019-03-16T07:15:30.962Z,11.7
2019-03-16T07:16:30.696Z,11.69
2019-03-16T07:17:30.687Z,11.7
2019-03-16T07:18:30.921Z,11.52
2019-03-16T07:19:33.743Z,11.54
2019-03-16T07:20:30.663Z,11.7
2019-03-16T07:21:31.145Z,11.69
2019-03-16T07:22:30.658Z,11.67
2019-03-16T07:23:31.121Z,11.7
2019-03-16T07:24:30.874Z,11.64
2019-03-16T07:25:30.863Z,11.58
2019-03-16T07:26:30.852Z,11.67
2019-03-16T07:27:31.438Z,11.6
2019-03-16T07:28:30.834Z,11.6
2019-03-16T07:29:30.839Z,11.67
2019-03-16T07:30:30.839Z,11.73
2019-03-16T07:31:30.917Z,11.82
2019-03-16T07:32:30.803Z,11.79
2019-03-16T07:33:30.790Z,11.86
2019-03-16T07:34:30.784Z,11.9
2019-03-16T07:35:30.780Z,11.86
2019-03-16T07:36:30.766Z,11.78
2019-03-16T07:37:30.778Z,11.96
2019-03-16T07:38:30.750Z,11.91
2019-03-16T07:39:30.744Z,12.04
2019-03-16T07:40:30.732Z,11.9
2019-03-16T07:41:30.725Z,11.83
2019-03-16T07:42:30.715Z,11.86
2019-03-16T07:43:30.703Z,11.94
2019-03-16T07:44:30.693Z,11.86
2019-03-16T07:45:30.692Z,11.94
2019-03-16T07:46:30.675Z,11.99
2019-03-16T07:47:30.682Z,11.95
2019-03-16T07:48:30.665Z,12.05
2019-03-16T07:49:30.650Z,12.04
2019-03-16T07:50:30.643Z,12.01
2019-03-16T07:51:30.636Z,12.07
2019-03-16T07:52:30.630Z,12.02
2019-03-16T07:53:30.619Z,12.19
2019-03-16T07:54:33.562Z,12.14
2019-03-16T07:55:30.608Z,12.23
2019-03-16T07:56:30.590Z,12.32
2019-03-16T07:57:44.295Z,12.42
2019-03-16T07:58:30.575Z,12.47
2019-03-16T07:59:30.612Z,12.46
2019-03-16T08:00:30.563Z,12.46
2019-03-16T08:01:30.556Z,12.54
2019-03-16T08:02:30.550Z,12.64
2019-03-16T08:03:30.541Z,12.68
2019-03-16T08:04:30.532Z,12.71
2019-03-16T08:05:30.530Z,12.6
2019-03-16T08:06:33.234Z,12.59
2019-03-16T08:07:30.510Z,12.74
2019-03-16T08:08:30.496Z,12.7
2019-03-16T08:09:30.497Z,12.68
2019-03-16T08:10:30.497Z,12.78
2019-03-16T08:11:30.474Z,12.72
2019-03-16T08:12:32.479Z,12.72
2019-03-16T08:13:30.221Z,12.79
2019-03-16T08:14:30.450Z,12.85
2019-03-16T08:15:32.918Z,12.9
2019-03-16T08:16:30.437Z,13
2019-03-16T08:17:30.192Z,13.01
2019-03-16T08:18:30.419Z,13.01
2019-03-16T08:19:30.415Z,13.03
2019-03-16T08:20:33.803Z,13
2019-03-16T08:21:30.424Z,13.08
2019-03-16T08:22:30.148Z,13.11
2019-03-16T08:23:30.384Z,13.17
2019-03-16T08:24:30.387Z,13.22
2019-03-16T08:25:30.372Z,13.26
2019-03-16T08:26:30.375Z,13.22
2019-03-16T08:27:30.359Z,13.23
2019-03-16T08:28:30.348Z,13.25
2019-03-16T08:29:30.340Z,13.23
2019-03-16T08:30:30.339Z,13.25
2019-03-16T08:31:30.330Z,13.22
2019-03-16T08:32:30.376Z,13.22
2019-03-16T08:33:30.330Z,13.2
2019-03-16T08:34:30.310Z,13.29
2019-03-16T08:35:30.302Z,13.28
2019-03-16T08:36:30.293Z,13.29
2019-03-16T08:37:32.208Z,13.32
2019-03-16T08:38:30.279Z,13.38
2019-03-16T08:39:30.267Z,13.39
2019-03-16T08:40:30.263Z,13.44
2019-03-16T08:41:30.257Z,13.44
2019-03-16T08:42:30.247Z,13.62
2019-03-16T08:43:30.247Z,13.64
2019-03-16T08:44:30.233Z,13.69
2019-03-16T08:45:30.225Z,13.73
2019-03-16T08:46:30.220Z,13.7
2019-03-16T08:47:31.427Z,13.87
2019-03-16T08:48:30.212Z,13.88
2019-03-16T08:49:30.202Z,13.91
2019-03-16T08:50:30.193Z,14.02
2019-03-16T08:51:29.948Z,14.03
2019-03-16T08:52:30.191Z,14.04
2019-03-16T08:53:30.173Z,13.99
2019-03-16T08:54:30.165Z,14.09
2019-03-16T08:55:30.161Z,14.09
2019-03-16T08:56:30.153Z,14.04
2019-03-16T08:57:30.155Z,14.14
2019-03-16T08:58:30.143Z,14.14
2019-03-16T08:59:30.141Z,14.09
2019-03-16T09:00:30.131Z,14.2
2019-03-16T09:01:30.166Z,14.22
2019-03-16T09:02:30.112Z,14.27
2019-03-16T09:03:42.663Z,14.4
2019-03-16T09:04:30.102Z,14.35
2019-03-16T09:05:30.095Z,14.28
2019-03-16T09:06:30.088Z,14.22
2019-03-16T09:07:30.079Z,14.25
2019-03-16T09:08:30.069Z,14.33
2019-03-16T09:09:29.821Z,14.46
2019-03-16T09:10:30.058Z,14.52
2019-03-16T09:11:30.050Z,14.58
2019-03-16T09:12:30.045Z,14.51
2019-03-16T09:13:30.040Z,14.47
2019-03-16T09:14:30.034Z,14.55
2019-03-16T09:15:30.027Z,14.64
2019-03-16T09:16:30.020Z,14.54
2019-03-16T09:17:30.011Z,14.58
2019-03-16T09:18:30.035Z,14.68
2019-03-16T09:19:30.001Z,14.62
2019-03-16T09:20:30.002Z,14.62
2019-03-16T09:21:29.994Z,14.69
2019-03-16T09:22:32.184Z,14.72
2019-03-16T09:23:30.044Z,14.84
2019-03-16T09:24:29.990Z,14.89
2019-03-16T09:25:29.972Z,14.84
2019-03-16T09:26:29.955Z,14.88
2019-03-16T09:27:36.146Z,14.81
2019-03-16T09:28:29.945Z,14.81
2019-03-16T09:29:29.694Z,14.81
2019-03-16T09:30:29.942Z,14.73
2019-03-16T09:31:29.931Z,14.77
2019-03-16T09:32:29.943Z,14.83
2019-03-16T09:33:30.206Z,14.84
2019-03-16T09:34:29.918Z,14.84
2019-03-16T09:35:29.899Z,14.8
2019-03-16T09:36:29.896Z,14.91
2019-03-16T09:37:29.890Z,14.96
2019-03-16T09:38:29.644Z,14.96
2019-03-16T09:39:29.875Z,15.02
2019-03-16T09:40:29.872Z,15.07
2019-03-16T09:41:29.862Z,15.11
2019-03-16T09:42:29.614Z,15.09
2019-03-16T09:43:29.856Z,15.06
2019-03-16T09:44:29.848Z,14.94
2019-03-16T09:45:29.840Z,14.81
2019-03-16T09:46:29.839Z,14.86
2019-03-16T09:47:29.840Z,14.83
2019-03-16T09:48:29.826Z,14.86
2019-03-16T09:49:29.842Z,14.96
2019-03-16T09:50:29.819Z,14.96
2019-03-16T09:51:29.807Z,15.07
2019-03-16T09:52:29.627Z,15.19
2019-03-16T09:53:29.804Z,15.28
2019-03-16T09:54:29.821Z,15.35
2019-03-16T09:55:29.786Z,15.49
2019-03-16T09:56:29.783Z,15.46
2019-03-16T09:57:29.771Z,15.5
2019-03-16T09:58:35.999Z,15.53
2019-03-16T09:59:29.762Z,15.54
2019-03-16T10:00:29.755Z,15.64
2019-03-16T10:01:29.751Z,15.64
2019-03-16T10:02:29.745Z,15.5
2019-03-16T10:03:29.744Z,15.43
2019-03-16T10:04:29.734Z,15.29
2019-03-16T10:05:29.725Z,15.23
2019-03-16T10:06:29.736Z,15.23
2019-03-16T10:07:29.714Z,15.2
2019-03-16T10:08:29.709Z,15.2
2019-03-16T10:09:29.720Z,15.25
2019-03-16T10:10:29.698Z,15.21
2019-03-16T10:11:29.692Z,15.25
2019-03-16T10:12:29.690Z,15.31
2019-03-16T10:13:29.684Z,15.34
2019-03-16T10:14:29.675Z,15.41
2019-03-16T10:15:29.673Z,15.43
2019-03-16T10:16:29.662Z,15.57
2019-03-16T10:17:29.656Z,15.67
2019-03-16T10:18:29.659Z,15.75
2019-03-16T10:19:29.652Z,15.86
2019-03-16T10:20:29.679Z,15.94
2019-03-16T10:21:29.635Z,15.93
2019-03-16T10:22:29.630Z,15.87
2019-03-16T10:23:29.628Z,15.86
2019-03-16T10:24:29.629Z,15.86
2019-03-16T10:25:29.708Z,15.83
2019-03-16T10:26:29.612Z,15.87
2019-03-16T10:27:29.618Z,15.76
2019-03-16T10:28:29.598Z,15.75
2019-03-16T10:29:29.595Z,15.76
2019-03-16T10:30:29.596Z,15.69
2019-03-16T10:31:29.587Z,15.65
2019-03-16T10:32:29.579Z,15.56
2019-03-16T10:33:29.591Z,15.47
2019-03-16T10:34:29.568Z,15.41
2019-03-16T10:35:29.557Z,15.43
2019-03-16T10:36:29.313Z,15.41
2019-03-16T10:37:29.568Z,15.43
2019-03-16T10:38:29.551Z,15.38
2019-03-16T10:39:29.540Z,15.32
2019-03-16T10:40:29.048Z,15.28
2019-03-16T10:41:29.530Z,15.41
2019-03-16T10:42:29.519Z,15.35
2019-03-16T10:43:29.517Z,15.43
2019-03-16T10:44:29.512Z,15.39
2019-03-16T10:45:29.505Z,15.39
2019-03-16T10:46:29.518Z,15.38
2019-03-16T10:47:29.504Z,15.41
2019-03-16T10:48:29.498Z,15.49
2019-03-16T10:49:29.485Z,15.36
2019-03-16T10:50:29.488Z,15.27
2019-03-16T10:51:32.395Z,15.17
2019-03-16T10:52:29.550Z,15.11
2019-03-16T10:53:29.460Z,15.02
2019-03-16T10:54:29.455Z,15.02
2019-03-16T10:55:29.454Z,15.03
2019-03-16T10:56:29.456Z,14.92
2019-03-16T10:57:29.436Z,14.94
2019-03-16T10:58:29.440Z,14.95
2019-03-16T10:59:29.424Z,14.94
2019-03-16T11:00:29.416Z,14.84
2019-03-16T11:01:29.411Z,14.84
2019-03-16T11:02:29.410Z,14.88
2019-03-16T11:03:29.398Z,14.84
2019-03-16T11:04:29.396Z,14.83
2019-03-16T11:05:29.392Z,14.91
2019-03-16T11:06:29.380Z,14.91
2019-03-16T11:07:29.376Z,14.89
2019-03-16T11:08:29.418Z,14.96
2019-03-16T11:09:31.541Z,15.06
2019-03-16T11:10:29.360Z,14.95
2019-03-16T11:11:29.354Z,14.89
2019-03-16T11:12:29.344Z,14.83
2019-03-16T11:13:29.343Z,14.64
2019-03-16T11:14:29.333Z,14.58
2019-03-16T11:15:29.330Z,14.64
2019-03-16T11:16:29.324Z,14.65
2019-03-16T11:17:29.312Z,14.57
2019-03-16T11:18:29.306Z,14.65
2019-03-16T11:19:29.307Z,14.65
2019-03-16T11:20:29.296Z,14.6
2019-03-16T11:21:29.288Z,14.65
2019-03-16T11:22:29.289Z,14.54
2019-03-16T11:23:29.045Z,14.62
2019-03-16T11:24:29.270Z,14.58
2019-03-16T11:25:29.267Z,14.64
2019-03-16T11:26:29.363Z,14.62
2019-03-16T11:27:29.251Z,14.68
2019-03-16T11:28:29.246Z,14.55
2019-03-16T11:29:29.243Z,14.51
2019-03-16T11:30:29.235Z,14.4
2019-03-16T11:31:29.225Z,14.4
2019-03-16T11:32:29.218Z,14.25
2019-03-16T11:33:29.214Z,14.28
2019-03-16T11:34:29.209Z,14.21
2019-03-16T11:35:29.203Z,14.06
2019-03-16T11:36:29.207Z,14.04
2019-03-16T11:37:29.188Z,13.88
2019-03-16T11:38:29.181Z,13.91
2019-03-16T11:39:31.969Z,14.03
2019-03-16T11:40:29.259Z,14.07
2019-03-16T11:41:29.162Z,13.97
2019-03-16T11:42:29.154Z,13.92
2019-03-16T11:43:29.186Z,13.84
2019-03-16T11:44:29.138Z,13.54
2019-03-16T11:45:29.132Z,13.3
2019-03-16T11:46:29.129Z,13.19
2019-03-16T11:47:29.120Z,13
2019-03-16T11:48:29.110Z,12.85
2019-03-16T11:49:29.194Z,12.77
2019-03-16T11:50:29.134Z,12.72
2019-03-16T11:51:28.858Z,12.54
2019-03-16T11:52:29.083Z,12.47
2019-03-16T11:53:29.082Z,12.42
2019-03-16T11:54:29.076Z,12.24
2019-03-16T11:55:29.062Z,12.2
2019-03-16T11:56:29.064Z,11.99
2019-03-16T11:57:29.050Z,11.83
2019-03-16T11:58:29.046Z,11.61
2019-03-16T11:59:29.039Z,11.44
2019-03-16T12:00:29.028Z,11.36
2019-03-16T12:01:29.021Z,11.27
2019-03-16T12:02:29.004Z,11.28
2019-03-16T12:03:29.000Z,11.03
2019-03-16T12:04:28.995Z,11.14
2019-03-16T12:05:28.986Z,11.11
2019-03-16T12:06:28.978Z,11.18
2019-03-16T12:07:28.971Z,11.09
2019-03-16T12:08:28.959Z,11.15
2019-03-16T12:09:28.952Z,11.07
2019-03-16T12:10:28.939Z,11.14
2019-03-16T12:11:28.928Z,11.02
2019-03-16T12:12:28.932Z,11.02
2019-03-16T12:13:28.924Z,10.91
2019-03-16T12:14:28.911Z,10.86
2019-03-16T12:15:28.897Z,10.71
2019-03-16T12:16:28.884Z,10.74
2019-03-16T12:17:28.880Z,10.63
2019-03-16T12:18:28.869Z,10.64
2019-03-16T12:19:28.865Z,10.63
2019-03-16T12:20:28.850Z,10.55
2019-03-16T12:21:28.844Z,10.61
2019-03-16T12:22:28.838Z,10.52
2019-03-16T12:23:28.580Z,10.63
2019-03-16T12:24:28.813Z,10.7
2019-03-16T12:25:28.804Z,10.78
2019-03-16T12:26:28.796Z,10.76
2019-03-16T12:27:28.861Z,10.78
2019-03-16T12:28:28.776Z,10.88
2019-03-16T12:29:38.779Z,10.88
2019-03-16T12:30:28.757Z,10.97
2019-03-16T12:31:28.752Z,11.03
2019-03-16T12:32:28.741Z,10.94
2019-03-16T12:33:28.737Z,11.02
2019-03-16T12:34:28.715Z,11.04
2019-03-16T12:35:28.715Z,10.92
2019-03-16T12:36:28.702Z,10.91
2019-03-16T12:37:28.690Z,10.85
2019-03-16T12:38:28.680Z,10.82
2019-03-16T12:39:28.670Z,10.84
2019-03-16T12:40:28.665Z,10.86
2019-03-16T12:41:28.660Z,10.88
2019-03-16T12:42:28.645Z,10.88
2019-03-16T12:43:28.633Z,10.85
2019-03-16T12:44:28.625Z,10.85
2019-03-16T12:45:28.616Z,10.97
2019-03-16T12:46:28.605Z,10.88
2019-03-16T12:47:31.034Z,10.89
2019-03-16T12:48:28.607Z,10.99
2019-03-16T12:49:28.576Z,10.97
2019-03-16T12:50:28.569Z,10.86
2019-03-16T12:51:28.563Z,10.84
2019-03-16T12:52:28.559Z,10.89
2019-03-16T12:53:28.538Z,10.91
2019-03-16T12:54:28.534Z,10.86
2019-03-16T12:55:28.530Z,10.86
2019-03-16T12:56:28.522Z,10.97
2019-03-16T12:57:28.356Z,10.89
2019-03-16T12:58:28.493Z,10.79
2019-03-16T12:59:28.484Z,10.73
2019-03-16T13:00:28.547Z,10.74
2019-03-16T13:01:28.462Z,10.76
2019-03-16T13:02:28.217Z,10.74
2019-03-16T13:03:28.447Z,10.66
2019-03-16T13:04:28.442Z,10.53
2019-03-16T13:05:28.431Z,10.66
2019-03-16T13:06:28.427Z,10.56
2019-03-16T13:07:28.245Z,10.59
2019-03-16T13:08:28.401Z,10.55